createdAt,value
2022-08-10T00:04:55.426Z,96402.63
2022-08-10T00:09:58.398Z,96404.50
2022-08-10T00:15:01.302Z,96409.66
2022-08-10T00:20:08.737Z,96408.50
2022-08-10T00:25:11.901Z,96399.31
2022-08-10T00:30:15.017Z,96399.13
2022-08-10T00:35:19.142Z,96397.91
2022-08-10T00:40:37.376Z,96392.22
2022-08-10T00:45:40.798Z,96385.94
2022-08-10T00:50:45.234Z,96379.22
2022-08-10T00:57:05.171Z,96383.53
2022-08-10T01:02:07.670Z,96381.91
2022-08-10T01:06:42.546Z,96376.44
2022-08-10T01:12:47.134Z,96373.56
2022-08-10T01:17:22.905Z,96371.94
2022-08-10T01:23:05.310Z,96362.94
2022-08-10T01:28:22.307Z,96361.72
2022-08-10T01:33:58.177Z,96352.31
2022-08-10T01:38:54.133Z,96352.91
2022-08-10T01:44:03.743Z,96361.25
2022-08-10T01:49:10.658Z,96362.44
2022-08-10T01:54:15.577Z,96362.38
2022-08-10T01:59:22.199Z,96365.59
2022-08-10T02:04:28.194Z,96369.22
2022-08-10T02:09:35.206Z,96375.63
2022-08-10T02:14:44.077Z,96375.25
2022-08-10T02:19:50.810Z,96373.94
2022-08-10T02:24:54.153Z,96372.47
2022-08-10T02:29:59.066Z,96382.75
2022-08-10T02:35:05.353Z,96378.41
2022-08-10T02:42:18.085Z,96383.16
2022-08-10T02:45:42.283Z,96379.72
2022-08-10T02:50:51.185Z,96389.81
2022-08-10T02:56:01.122Z,96396.44
2022-08-10T03:01:08.035Z,96389.91
2022-08-10T03:06:17.016Z,96397.41
2022-08-10T03:12:34.971Z,96381.09
2022-08-10T03:16:51.263Z,96380.25
2022-08-10T03:21:56.774Z,96378.81
2022-08-10T03:27:00.319Z,96381.00
2022-08-10T03:32:05.333Z,96371.19
2022-08-10T03:37:09.597Z,96380.25
2022-08-10T03:42:13.896Z,96379.50
2022-08-10T03:47:18.501Z,96375.97
2022-08-10T03:52:22.890Z,96379.84
2022-08-10T03:57:26.617Z,96376.50
2022-08-10T04:02:45.980Z,96380.97
2022-08-10T04:07:52.516Z,96380.97
2022-08-10T04:12:55.697Z,96378.88
2022-08-10T04:18:05.820Z,96389.44
2022-08-10T04:23:15.132Z,96393.81
2022-08-10T04:28:18.142Z,96388.53
2022-08-10T04:33:24.434Z,96400.06
2022-08-10T04:38:30.897Z,96415.25
2022-08-10T04:43:34.113Z,96420.63
2022-08-10T04:48:42.306Z,96431.88
2022-08-10T04:54:05.148Z,96435.50
2022-08-10T04:59:11.277Z,96429.25
2022-08-10T05:04:36.395Z,96437.31
2022-08-10T05:10:02.468Z,96440.06
2022-08-10T05:15:01.593Z,96435.19
2022-08-10T05:20:07.266Z,96435.91
2022-08-10T05:25:15.352Z,96436.50
2022-08-10T05:30:21.762Z,96428.28
2022-08-10T05:35:24.845Z,96435.31
2022-08-10T05:40:30.305Z,96437.88
2022-08-10T05:45:33.916Z,96437.19
2022-08-10T05:50:56.884Z,96441.44
2022-08-10T05:56:01.527Z,96435.97
2022-08-10T06:01:08.171Z,96451.75
2022-08-10T06:06:11.851Z,96448.91
2022-08-10T06:12:26.526Z,96448.50
2022-08-10T06:16:42.868Z,96448.47
2022-08-10T06:22:00.742Z,96447.44
2022-08-10T06:27:06.154Z,96451.28
2022-08-10T06:32:09.686Z,96456.69
2022-08-10T06:37:16.734Z,96460.44
2022-08-10T06:42:24.219Z,96458.13
2022-08-10T06:47:32.266Z,96450.41
2022-08-10T06:52:37.009Z,96455.00
2022-08-10T06:57:43.338Z,96460.31
2022-08-10T07:02:51.627Z,96464.03
2022-08-10T07:07:58.981Z,96451.81
2022-08-10T07:13:03.874Z,96451.44
2022-08-10T07:18:08.013Z,96457.22
2022-08-10T07:23:56.868Z,96462.13
2022-08-10T07:28:36.844Z,96445.59
2022-08-10T07:33:40.997Z,96438.25
2022-08-10T07:38:45.087Z,96427.25
2022-08-10T07:43:51.845Z,96436.41
2022-08-10T07:49:18.841Z,96441.75
2022-08-10T07:54:24.469Z,96440.88
2022-08-10T07:59:38.474Z,96441.66
2022-08-10T08:04:42.244Z,96441.41
2022-08-10T08:09:58.133Z,96438.50
2022-08-10T08:16:17.498Z,96430.47
2022-08-10T08:20:31.143Z,96432.44
2022-08-10T08:25:34.945Z,96441.00
2022-08-10T08:30:43.443Z,96433.34
2022-08-10T08:35:50.196Z,96426.94
2022-08-10T08:41:02.171Z,96423.22
2022-08-10T08:46:28.420Z,96423.09
2022-08-10T08:52:09.507Z,96423.78
2022-08-10T08:57:08.949Z,96423.69
2022-08-10T09:02:26.485Z,96426.28
2022-08-10T09:07:59.979Z,96416.97
2022-08-10T09:13:11.656Z,96418.44
2022-08-10T09:18:24.234Z,96406.91
2022-08-10T09:24:05.324Z,96402.19
2022-08-10T09:29:12.742Z,96390.78
2022-08-10T09:36:24.974Z,96400.13
2022-08-10T09:40:56.326Z,96390.34
2022-08-10T09:45:25.031Z,96386.09
2022-08-10T09:51:22.828Z,96386.00
2022-08-10T09:56:30.498Z,96381.03
2022-08-10T10:02:03.893Z,96382.53
2022-08-10T10:07:07.939Z,96383.66
2022-08-10T10:12:22.389Z,96384.50
2022-08-10T10:17:30.634Z,96378.50
2022-08-10T10:22:52.022Z,96380.59
2022-08-10T10:28:04.380Z,96371.34
2022-08-10T10:33:14.958Z,96370.16
2022-08-10T10:38:22.458Z,96365.63
2022-08-10T10:43:39.966Z,96364.31
2022-08-10T10:48:49.148Z,96359.06
2022-08-10T10:54:02.806Z,96348.00
2022-08-10T10:59:53.541Z,96346.22
2022-08-10T11:04:45.805Z,96348.00
2022-08-10T11:10:05.188Z,96334.97
2022-08-10T11:15:17.360Z,96329.00
2022-08-10T11:20:27.043Z,96326.03
2022-08-10T11:25:32.956Z,96321.47
2022-08-10T11:30:49.886Z,96320.06
2022-08-10T11:36:02.070Z,96314.44
2022-08-10T11:42:11.500Z,96308.34
2022-08-10T11:46:42.019Z,96299.19
2022-08-10T11:51:48.887Z,96294.28
2022-08-10T11:57:01.302Z,96290.53
2022-08-10T12:02:07.758Z,96283.56
2022-08-10T12:08:54.755Z,96275.88
2022-08-10T12:12:42.813Z,96275.41
2022-08-10T12:17:50.885Z,96269.22
2022-08-10T12:22:58.162Z,96260.31
2022-08-10T12:28:10.308Z,96260.44
2022-08-10T12:33:22.222Z,96259.47
2022-08-10T12:38:34.196Z,96260.53
2022-08-10T12:44:06.635Z,96261.81
2022-08-10T12:49:14.357Z,96255.38
2022-08-10T12:54:32.577Z,96248.88
2022-08-10T12:59:43.116Z,96241.72
2022-08-10T13:04:50.277Z,96231.56
2022-08-10T13:09:56.266Z,96236.53
2022-08-10T13:15:28.227Z,96230.63
2022-08-10T13:20:35.286Z,96224.78
2022-08-10T13:25:40.649Z,96214.00
2022-08-10T13:30:50.676Z,96196.72
2022-08-10T13:35:58.138Z,96198.31
2022-08-10T13:41:04.406Z,96195.59
2022-08-10T13:46:21.966Z,96177.66
2022-08-10T13:51:54.574Z,96175.38
2022-08-10T13:56:52.333Z,96165.06
2022-08-10T14:02:00.105Z,96154.69
2022-08-10T14:07:04.425Z,96153.38
2022-08-10T14:12:09.002Z,96161.81
2022-08-10T14:17:13.998Z,96157.25
2022-08-10T14:22:32.475Z,96151.44
2022-08-10T14:28:03.440Z,96148.63
2022-08-10T14:33:13.822Z,96142.19
2022-08-10T14:38:21.031Z,96136.38
2022-08-10T14:43:29.172Z,96138.53
2022-08-10T14:48:39.193Z,96132.19
2022-08-10T14:53:42.770Z,96131.00
2022-08-10T14:58:58.815Z,96122.59
2022-08-10T15:04:13.801Z,96123.53
2022-08-10T15:09:20.150Z,96121.84
2022-08-10T15:14:43.138Z,96112.22
2022-08-10T15:20:04.682Z,96108.25
2022-08-10T15:25:24.121Z,96101.50
2022-08-10T15:30:32.119Z,96106.41
2022-08-10T15:35:55.731Z,96100.06
2022-08-10T15:40:59.965Z,96099.75
2022-08-10T15:46:14.595Z,96104.56
2022-08-10T15:51:28.545Z,96092.88
2022-08-10T15:56:43.513Z,96086.81
2022-08-10T16:02:04.233Z,96081.38
2022-08-10T16:07:23.046Z,96080.63
2022-08-10T16:13:00.066Z,96079.94
2022-08-10T16:18:08.379Z,96073.91
2022-08-10T16:23:16.585Z,96071.53
2022-08-10T16:28:23.776Z,96089.00
2022-08-10T16:33:53.120Z,96085.13
2022-08-10T16:38:54.434Z,96081.28
2022-08-10T16:44:00.331Z,96082.81
2022-08-10T16:49:03.867Z,96074.59
2022-08-10T16:54:10.299Z,96077.25
2022-08-10T16:59:17.853Z,96082.75
2022-08-10T17:04:26.126Z,96077.59
2022-08-10T17:09:33.008Z,96079.75
2022-08-10T17:14:39.943Z,96073.47
2022-08-10T17:19:45.917Z,96074.47
2022-08-10T17:24:56.179Z,96072.22
2022-08-10T17:30:04.291Z,96068.44
2022-08-10T17:35:13.086Z,96066.84
2022-08-10T17:40:22.506Z,96077.16
2022-08-10T17:45:48.119Z,96084.63
2022-08-10T17:50:53.686Z,96093.50
2022-08-10T17:56:00.910Z,96086.50
2022-08-10T18:01:38.972Z,96093.47
2022-08-10T18:06:29.790Z,96095.00
2022-08-10T18:11:35.988Z,96097.47
2022-08-10T18:16:41.718Z,96090.06
2022-08-10T18:21:49.148Z,96089.56
2022-08-10T18:26:56.494Z,96096.91
2022-08-10T18:32:02.026Z,96103.66
2022-08-10T18:37:11.531Z,96099.91
2022-08-10T18:42:25.666Z,96108.69
2022-08-10T18:47:34.000Z,96109.84
2022-08-10T18:52:39.539Z,96121.22
2022-08-10T18:57:59.130Z,96123.38
2022-08-10T19:03:16.118Z,96121.06
2022-08-10T19:08:36.473Z,96126.81
2022-08-10T19:14:01.414Z,96135.78
2022-08-10T19:19:22.241Z,96142.75
2022-08-10T19:24:31.447Z,96141.72
2022-08-10T19:30:08.639Z,96140.97
2022-08-10T19:35:11.044Z,96149.31
2022-08-10T19:40:44.828Z,96152.28
2022-08-10T19:46:02.315Z,96153.59
2022-08-10T19:51:10.555Z,96126.69
2022-08-10T19:56:33.509Z,96162.88
2022-08-10T20:01:55.960Z,96176.94
2022-08-10T20:07:10.140Z,96170.09
2022-08-10T20:12:19.831Z,96171.09
2022-08-10T20:17:51.142Z,96178.56
2022-08-10T20:23:05.060Z,96180.63
2022-08-10T20:28:19.411Z,96184.03
2022-08-10T20:33:28.841Z,96189.63
2022-08-10T20:38:38.965Z,96185.78
2022-08-10T20:43:48.510Z,96183.06
2022-08-10T20:48:59.558Z,96175.91
2022-08-10T20:54:06.414Z,96183.50
2022-08-10T21:00:02.429Z,96187.09
2022-08-10T21:05:19.541Z,96175.88
2022-08-10T21:10:34.845Z,96183.09
2022-08-10T21:15:55.505Z,96182.19
2022-08-10T21:21:16.686Z,96191.13
2022-08-10T21:26:29.882Z,96194.19
2022-08-10T21:31:58.945Z,96198.25
2022-08-10T21:37:12.078Z,96203.72
2022-08-10T21:42:40.593Z,96202.00
2022-08-10T21:48:29.916Z,96204.22
2022-08-10T21:53:57.368Z,96203.50
2022-08-10T21:59:22.302Z,96210.00
2022-08-10T22:04:45.551Z,96216.63
2022-08-10T22:10:11.913Z,96226.00
2022-08-10T22:16:03.240Z,96225.31
2022-08-10T22:21:27.098Z,96231.91
2022-08-10T22:27:03.835Z,96228.31
2022-08-10T22:32:35.977Z,96236.16
2022-08-10T22:38:10.889Z,96237.06
2022-08-10T22:43:40.503Z,96217.63
2022-08-10T22:48:59.452Z,96224.72
2022-08-10T22:54:31.505Z,96226.69
2022-08-10T22:59:36.073Z,96231.09
2022-08-10T23:04:45.981Z,96229.28
2022-08-10T23:10:03.824Z,96233.50
2022-08-10T23:15:35.637Z,96238.50
2022-08-10T23:20:41.460Z,96249.31
2022-08-10T23:25:56.369Z,96247.00
2022-08-10T23:31:02.760Z,96239.75
2022-08-10T23:36:33.712Z,96242.13
2022-08-10T23:41:34.298Z,96248.16
2022-08-10T23:46:41.121Z,96247.97
2022-08-10T23:51:56.455Z,96248.22
2022-08-10T23:57:01.886Z,96250.94
